Time;durP1;ratioP1;P1;durP2;ratioP2;P2;SDS_P1;SDS_P2;PMS_P1;PMS_P2;Temp;Humidity;BMP_temperature;BMP_pressure;BME280_temperature;BME280_humidity;BME280_pressure;Samples;Min_cycle;Max_cycle;Signal;HPM_P1;HPM_P2
2023/07/19 00:00:07;;;;;;;4.60;2.80;;;15.50;99.90;;;;;;4995683;28;20042;-59
2023/07/19 00:02:33;;;;;;;7.75;2.70;;;15.50;99.90;;;;;;4997033;28;20022;-57
2023/07/19 00:04:59;;;;;;;3.63;2.80;;;15.50;99.90;;;;;;4999943;28;20034;-57
2023/07/19 00:07:25;;;;;;;6.45;3.00;;;15.50;99.90;;;;;;4995844;28;20038;-59
2023/07/19 00:09:50;;;;;;;5.35;2.65;;;15.50;99.90;;;;;;4995243;28;20070;-58
2023/07/19 00:12:16;;;;;;;3.65;1.95;;;15.50;99.90;;;;;;4995769;28;20036;-58
2023/07/19 00:14:41;;;;;;;4.22;2.50;;;15.50;99.90;;;;;;5000583;28;20060;-59
2023/07/19 00:17:07;;;;;;;4.10;3.10;;;15.50;99.90;;;;;;4998423;28;20466;-58
2023/07/19 00:19:33;;;;;;;4.75;2.75;;;15.50;99.90;;;;;;4996223;28;20045;-59
2023/07/19 00:21:58;;;;;;;3.53;2.42;;;15.40;99.90;;;;;;4999718;28;20034;-59
2023/07/19 00:24:24;;;;;;;4.03;2.40;;;15.50;99.90;;;;;;4995795;28;20533;-59
2023/07/19 00:26:49;;;;;;;4.93;3.10;;;15.50;99.90;;;;;;4996013;28;20042;-59
2023/07/19 00:29:15;;;;;;;5.25;2.70;;;15.50;99.90;;;;;;4995159;28;20422;-59
2023/07/19 00:31:41;;;;;;;5.30;3.10;;;15.50;99.90;;;;;;4996893;28;20035;-59
2023/07/19 00:34:06;;;;;;;3.95;2.90;;;15.40;99.90;;;;;;4994364;28;20080;-59
2023/07/19 00:36:32;;;;;;;3.88;2.47;;;15.30;99.90;;;;;;4997254;28;20026;-59
2023/07/19 00:38:58;;;;;;;4.63;2.95;;;15.30;99.90;;;;;;4996880;28;20037;-59
2023/07/19 00:41:23;;;;;;;3.63;3.17;;;15.30;99.90;;;;;;4995533;28;20044;-59
2023/07/19 00:43:49;;;;;;;4.07;2.58;;;15.30;99.90;;;;;;4996402;28;20025;-59
2023/07/19 00:46:15;;;;;;;3.05;2.75;;;15.40;99.90;;;;;;4997288;28;20041;-58
2023/07/19 00:48:42;;;;;;;5.28;2.70;;;15.50;99.90;;;;;;4998676;28;20052;-58
2023/07/19 00:51:07;;;;;;;5.45;2.53;;;15.50;99.90;;;;;;4996356;28;20021;-58
2023/07/19 00:53:34;;;;;;;3.38;2.65;;;15.60;99.90;;;;;;4995741;28;20022;-59
2023/07/19 00:55:59;;;;;;;4.15;2.67;;;15.70;99.90;;;;;;5000274;28;20157;-58
2023/07/19 00:58:25;;;;;;;4.28;2.65;;;15.70;99.90;;;;;;4996484;28;20977;-59
2023/07/19 01:00:54;;;;;;;4.00;2.63;;;15.80;99.90;;;;;;4996413;28;20034;-58
2023/07/19 01:03:20;;;;;;;3.22;2.55;;;15.80;99.90;;;;;;4997960;28;20038;-58
2023/07/19 01:05:46;;;;;;;3.40;2.47;;;15.80;99.90;;;;;;4995786;28;20034;-58
2023/07/19 01:08:11;;;;;;;6.28;2.70;;;15.80;99.90;;;;;;4996272;28;20030;-58
2023/07/19 01:10:37;;;;;;;6.25;3.20;;;15.70;99.90;;;;;;4993125;28;20201;-58
2023/07/19 01:13:05;;;;;;;5.97;2.97;;;15.60;99.90;;;;;;4994689;28;20069;-58
2023/07/19 01:15:30;;;;;;;5.40;3.22;;;15.60;99.90;;;;;;4995160;28;20034;-58
2023/07/19 01:17:56;;;;;;;4.20;2.00;;;15.50;99.90;;;;;;5001685;28;20088;-57
2023/07/19 01:20:22;;;;;;;3.83;3.40;;;15.40;99.90;;;;;;5003150;28;20049;-57
2023/07/19 01:22:47;;;;;;;4.10;2.83;;;15.40;99.90;;;;;;4999833;28;20168;-57
2023/07/19 01:25:13;;;;;;;6.90;3.55;;;15.30;99.90;;;;;;4994794;28;20030;-58
2023/07/19 01:27:40;;;;;;;4.15;2.78;;;15.30;99.90;;;;;;4999998;28;20021;-57
2023/07/19 01:30:06;;;;;;;8.90;3.03;;;15.20;99.90;;;;;;4998611;28;20060;-57
2023/07/19 01:32:32;;;;;;;5.78;2.95;;;15.10;99.90;;;;;;4997652;28;20050;-57
2023/07/19 01:34:58;;;;;;;3.33;2.58;;;15.10;99.90;;;;;;4996313;28;20478;-58
2023/07/19 01:37:24;;;;;;;8.77;3.42;;;15.10;99.90;;;;;;4992475;28;20038;-58
2023/07/19 01:39:50;;;;;;;10.35;3.15;;;15.00;99.90;;;;;;4994514;28;20396;-56
2023/07/19 01:42:16;;;;;;;5.85;3.25;;;15.00;99.90;;;;;;4996573;28;20026;-57
2023/07/19 01:44:42;;;;;;;3.70;2.70;;;15.00;99.90;;;;;;4998616;28;20037;-58
2023/07/19 01:47:08;;;;;;;4.93;3.45;;;15.00;99.90;;;;;;4995392;28;20030;-57
2023/07/19 01:49:34;;;;;;;5.88;2.63;;;15.10;99.90;;;;;;4995807;28;20056;-57
2023/07/19 01:52:00;;;;;;;7.45;2.95;;;15.10;99.90;;;;;;4996111;28;20102;-59
2023/07/19 01:54:26;;;;;;;6.45;3.03;;;15.10;99.90;;;;;;4996514;28;20034;-57
2023/07/19 01:56:51;;;;;;;5.35;2.90;;;15.10;99.90;;;;;;4995295;28;20034;-59
2023/07/19 01:59:17;;;;;;;7.30;3.38;;;15.20;99.90;;;;;;4994814;28;20061;-58
2023/07/19 02:01:44;;;;;;;4.88;3.65;;;15.20;99.90;;;;;;4993466;28;20034;-58
2023/07/19 02:04:09;;;;;;;5.18;3.15;;;15.20;99.90;;;;;;4997244;28;20054;-59
2023/07/19 02:06:35;;;;;;;3.63;3.10;;;15.20;99.90;;;;;;4994474;28;20375;-59
2023/07/19 02:09:01;;;;;;;4.82;3.30;;;15.30;99.90;;;;;;4996932;28;20030;-59
2023/07/19 02:11:26;;;;;;;9.10;3.63;;;15.30;99.90;;;;;;4997640;28;20035;-58
2023/07/19 02:13:52;;;;;;;4.80;4.00;;;15.30;99.90;;;;;;4995954;28;20493;-58
2023/07/19 02:16:18;;;;;;;5.30;3.47;;;15.20;99.90;;;;;;4996013;28;20076;-59
2023/07/19 02:18:43;;;;;;;4.82;3.58;;;15.20;99.90;;;;;;4996302;28;20641;-59
2023/07/19 02:21:09;;;;;;;5.32;4.28;;;15.20;99.90;;;;;;4997601;28;20410;-57
2023/07/19 02:23:35;;;;;;;7.18;3.78;;;15.20;99.90;;;;;;4995777;28;20037;-59
2023/07/19 02:26:00;;;;;;;5.43;3.35;;;15.20;99.90;;;;;;4996022;28;20052;-59
2023/07/19 02:28:26;;;;;;;5.10;3.90;;;15.10;99.90;;;;;;4995271;28;20622;-58
2023/07/19 02:30:51;;;;;;;8.95;4.00;;;15.10;99.90;;;;;;4993367;28;20475;-58
2023/07/19 02:33:17;;;;;;;4.70;3.00;;;15.10;99.90;;;;;;4995165;28;20027;-58
2023/07/19 02:35:43;;;;;;;5.45;3.53;;;15.10;99.90;;;;;;4994339;28;20471;-59
2023/07/19 02:38:09;;;;;;;4.57;3.70;;;15.10;99.90;;;;;;4999225;28;20549;-59
2023/07/19 02:40:34;;;;;;;3.35;3.05;;;15.10;99.90;;;;;;4997202;28;20034;-58
2023/07/19 02:43:00;;;;;;;5.63;3.60;;;15.10;99.90;;;;;;4998911;28;20532;-58
2023/07/19 02:45:26;;;;;;;4.13;3.70;;;15.10;99.90;;;;;;4998731;28;20027;-56
2023/07/19 02:47:51;;;;;;;6.18;3.35;;;15.10;99.90;;;;;;4997659;28;20037;-59
2023/07/19 02:50:20;;;;;;;3.67;3.17;;;15.10;99.90;;;;;;4999302;28;20080;-58
2023/07/19 02:52:46;;;;;;;5.63;3.42;;;15.10;99.90;;;;;;4998063;28;20435;-57
2023/07/19 02:55:12;;;;;;;4.18;3.17;;;15.00;99.90;;;;;;5000579;28;20026;-58
2023/07/19 02:57:38;;;;;;;5.75;4.20;;;15.00;99.90;;;;;;5000537;28;20026;-57
2023/07/19 03:00:05;;;;;;;8.55;3.90;;;14.90;99.90;;;;;;4998725;28;20110;-58
2023/07/19 03:02:30;;;;;;;4.72;3.47;;;14.90;99.90;;;;;;4999269;28;20018;-57
2023/07/19 03:04:56;;;;;;;4.93;3.83;;;14.90;99.90;;;;;;4999896;28;20069;-59
2023/07/19 03:07:23;;;;;;;6.50;3.58;;;14.90;99.90;;;;;;5001136;28;20050;-58
2023/07/19 03:09:49;;;;;;;5.32;3.50;;;14.90;99.90;;;;;;4999263;28;20030;-57
2023/07/19 03:12:15;;;;;;;7.28;4.03;;;14.90;99.90;;;;;;4996316;28;20057;-59
2023/07/19 03:14:40;;;;;;;4.85;3.47;;;14.90;99.90;;;;;;4998209;28;20026;-58
2023/07/19 03:17:06;;;;;;;6.18;4.13;;;14.90;99.90;;;;;;5000129;28;20580;-55
2023/07/19 03:19:32;;;;;;;5.05;3.65;;;14.90;99.90;;;;;;4997400;28;20034;-58
2023/07/19 03:21:58;;;;;;;5.07;3.25;;;14.90;99.90;;;;;;4996924;28;20038;-56
2023/07/19 03:24:24;;;;;;;4.55;3.60;;;14.90;99.90;;;;;;5000243;28;20105;-57
2023/07/19 03:26:49;;;;;;;3.92;3.50;;;14.90;99.90;;;;;;4996719;28;20502;-58
2023/07/19 03:29:15;;;;;;;4.28;3.80;;;14.90;99.90;;;;;;4999618;28;20030;-57
2023/07/19 03:31:41;;;;;;;5.00;3.83;;;14.90;99.90;;;;;;4998760;28;20043;-57
2023/07/19 03:34:06;;;;;;;5.68;4.10;;;14.90;99.90;;;;;;4999122;28;20040;-58
2023/07/19 03:36:32;;;;;;;7.00;3.95;;;14.90;99.90;;;;;;4999655;28;20030;-57
2023/07/19 03:38:58;;;;;;;5.22;3.65;;;14.90;99.90;;;;;;5000640;28;20509;-58
2023/07/19 03:41:24;;;;;;;5.22;4.40;;;14.90;99.90;;;;;;4995257;28;20038;-57
2023/07/19 03:43:49;;;;;;;6.03;3.58;;;14.80;99.90;;;;;;4998773;28;20080;-56
2023/07/19 03:46:15;;;;;;;6.50;3.83;;;14.90;99.90;;;;;;5000452;28;20035;-58
2023/07/19 03:48:41;;;;;;;6.43;4.10;;;15.00;99.90;;;;;;4996916;28;20383;-58
2023/07/19 03:51:06;;;;;;;3.53;3.20;;;15.10;99.90;;;;;;4994366;28;20023;-57
2023/07/19 03:53:32;;;;;;;4.68;3.53;;;15.10;99.90;;;;;;4999808;28;20522;-59
2023/07/19 03:56:00;;;;;;;4.65;3.60;;;15.20;99.90;;;;;;4997314;28;20036;-58
2023/07/19 03:58:26;;;;;;;4.28;3.47;;;15.30;99.90;;;;;;4998325;28;20048;-57
2023/07/19 04:01:03;;;;;;;5.78;3.97;;;15.30;99.90;;;;;;4997448;28;20505;-58
2023/07/19 04:03:29;;;;;;;5.18;3.33;;;15.40;99.90;;;;;;4994882;28;20503;-58
2023/07/19 04:05:57;;;;;;;3.90;3.10;;;15.40;99.90;;;;;;4993281;28;20034;-58
2023/07/19 04:08:22;;;;;;;5.55;3.90;;;15.40;99.90;;;;;;4997434;28;20770;-57
2023/07/19 04:10:48;;;;;;;4.40;3.90;;;15.50;99.90;;;;;;4997169;28;20077;-57
2023/07/19 04:13:14;;;;;;;3.65;3.35;;;15.60;99.90;;;;;;4996089;28;20376;-58
2023/07/19 04:15:40;;;;;;;4.45;3.17;;;15.70;99.90;;;;;;4998415;28;20482;-57
2023/07/19 04:18:06;;;;;;;4.55;3.13;;;15.70;99.90;;;;;;4998106;28;20026;-57
2023/07/19 04:20:32;;;;;;;9.85;3.67;;;15.80;99.90;;;;;;4995579;28;20038;-57
2023/07/19 04:22:57;;;;;;;4.28;3.40;;;15.90;99.90;;;;;;5000379;28;20080;-58
2023/07/19 04:25:24;;;;;;;4.38;2.92;;;16.00;99.90;;;;;;4994388;28;20802;-58
2023/07/19 04:27:52;;;;;;;7.13;3.28;;;16.00;99.90;;;;;;4991721;28;20612;-58
2023/07/19 04:30:18;;;;;;;5.30;3.83;;;16.10;99.90;;;;;;4996846;28;20026;-56
2023/07/19 04:32:44;;;;;;;6.68;3.40;;;16.30;99.90;;;;;;4998544;28;20706;-58
2023/07/19 04:35:10;;;;;;;7.28;4.03;;;16.30;99.90;;;;;;4995986;28;20050;-58
2023/07/19 04:37:38;;;;;;;6.78;3.90;;;16.40;99.90;;;;;;4997484;28;20561;-58
2023/07/19 04:40:06;;;;;;;5.25;3.22;;;16.40;99.90;;;;;;4996206;28;20077;-58
2023/07/19 04:42:31;;;;;;;6.80;3.85;;;16.40;99.90;;;;;;4998864;28;20113;-58
2023/07/19 04:44:57;;;;;;;3.88;3.30;;;16.40;99.90;;;;;;4996312;28;20109;-58
2023/07/19 04:47:23;;;;;;;6.32;3.63;;;16.40;99.90;;;;;;4996970;28;20120;-58
2023/07/19 04:49:48;;;;;;;5.53;3.72;;;16.40;99.90;;;;;;4997662;28;20538;-58
2023/07/19 04:52:14;;;;;;;4.35;3.53;;;16.40;99.90;;;;;;4996617;28;20034;-58
2023/07/19 04:54:40;;;;;;;5.50;3.65;;;16.40;99.90;;;;;;4997759;28;20022;-58
2023/07/19 04:57:06;;;;;;;4.78;3.70;;;16.40;99.90;;;;;;4997572;28;20034;-59
2023/07/19 04:59:32;;;;;;;5.07;3.22;;;16.40;99.90;;;;;;5000234;28;20479;-59
2023/07/19 05:01:58;;;;;;;4.28;3.60;;;16.40;99.90;;;;;;4981622;28;20032;-58
2023/07/19 05:04:24;;;;;;;5.93;3.95;;;16.50;99.90;;;;;;5000075;28;20034;-58
2023/07/19 05:06:49;;;;;;;6.63;3.97;;;16.60;99.90;;;;;;4999734;28;20060;-58
2023/07/19 05:09:15;;;;;;;4.30;3.53;;;16.60;99.90;;;;;;4995342;28;20045;-57
2023/07/19 05:11:41;;;;;;;4.43;3.20;;;16.70;99.90;;;;;;4995671;28;20062;-58
2023/07/19 05:14:07;;;;;;;4.53;3.63;;;16.80;99.90;;;;;;4997996;28;20104;-57
2023/07/19 05:16:35;;;;;;;6.72;3.60;;;16.80;99.90;;;;;;4994768;28;20034;-58
2023/07/19 05:19:01;;;;;;;5.78;3.55;;;16.90;99.90;;;;;;4996236;28;20660;-59
2023/07/19 05:21:27;;;;;;;4.28;3.88;;;16.90;99.90;;;;;;4996367;28;20034;-58
2023/07/19 05:23:53;;;;;;;5.30;3.55;;;16.90;99.90;;;;;;4995304;28;20383;-56
2023/07/19 05:26:19;;;;;;;4.10;3.13;;;16.80;99.90;;;;;;4994118;28;20041;-58
2023/07/19 05:28:45;;;;;;;4.85;3.40;;;16.80;99.90;;;;;;4996491;28;20119;-58
2023/07/19 05:31:11;;;;;;;5.95;4.32;;;16.90;99.90;;;;;;4995853;28;20033;-59
2023/07/19 05:33:37;;;;;;;7.00;3.83;;;16.90;99.90;;;;;;4994616;28;20023;-57
2023/07/19 05:36:03;;;;;;;4.55;3.33;;;16.90;99.90;;;;;;4995001;28;20031;-59
2023/07/19 05:38:29;;;;;;;6.40;3.70;;;17.00;99.90;;;;;;4996729;28;20030;-57
2023/07/19 05:41:02;;;;;;;4.80;3.72;;;17.00;99.90;;;;;;4996826;28;20033;-59
2023/07/19 05:43:28;;;;;;;4.47;3.72;;;17.10;99.90;;;;;;4996423;28;20042;-58
2023/07/19 05:46:01;;;;;;;4.03;3.60;;;17.20;99.90;;;;;;4997912;28;20052;-57
2023/07/19 05:48:26;;;;;;;4.97;3.40;;;17.30;99.90;;;;;;4999361;28;20034;-57
2023/07/19 05:50:52;;;;;;;4.18;3.20;;;17.50;99.90;;;;;;4997795;28;20776;-59
2023/07/19 05:53:17;;;;;;;3.47;2.70;;;17.60;99.90;;;;;;5000161;28;20023;-59
2023/07/19 05:55:43;;;;;;;5.85;3.00;;;17.80;99.90;;;;;;4995858;28;20518;-58
2023/07/19 05:58:09;;;;;;;4.05;3.22;;;18.00;99.90;;;;;;4996452;28;20060;-58
2023/07/19 06:00:34;;;;;;;3.40;2.58;;;18.10;99.90;;;;;;4994991;28;20597;-59
2023/07/19 06:03:00;;;;;;;4.43;3.20;;;18.20;99.90;;;;;;4999200;28;20057;-58
2023/07/19 06:05:26;;;;;;;5.13;2.38;;;18.20;99.90;;;;;;4998532;28;20398;-59
2023/07/19 06:07:52;;;;;;;5.28;3.25;;;18.20;99.90;;;;;;4996407;28;20049;-58
2023/07/19 06:10:18;;;;;;;3.58;2.70;;;18.20;99.90;;;;;;4998015;28;20026;-57
2023/07/19 06:12:44;;;;;;;4.25;2.67;;;18.20;99.90;;;;;;4998212;28;20510;-57
2023/07/19 06:15:11;;;;;;;3.75;2.67;;;18.30;99.90;;;;;;5002465;28;20026;-58
2023/07/19 06:17:37;;;;;;;3.95;2.60;;;18.40;99.90;;;;;;5000186;28;20026;-57
2023/07/19 06:20:04;;;;;;;4.05;2.65;;;18.50;99.90;;;;;;4997338;28;20052;-58
2023/07/19 06:22:30;;;;;;;6.80;2.63;;;18.50;99.90;;;;;;4998344;28;20035;-60
2023/07/19 06:25:00;;;;;;;3.90;2.28;;;18.60;99.90;;;;;;4996914;28;20034;-58
2023/07/19 06:27:25;;;;;;;5.00;2.40;;;18.70;99.90;;;;;;4998785;28;20046;-58
2023/07/19 06:29:51;;;;;;;3.22;2.40;;;18.80;99.90;;;;;;4999613;28;20037;-57
2023/07/19 06:32:17;;;;;;;3.50;2.67;;;18.90;99.90;;;;;;4998388;28;20071;-59
2023/07/19 06:34:43;;;;;;;3.53;2.83;;;19.10;99.90;;;;;;4993885;28;20494;-57
2023/07/19 06:37:08;;;;;;;3.90;3.10;;;19.20;99.90;;;;;;4996807;28;20387;-58
2023/07/19 06:39:34;;;;;;;4.88;2.53;;;19.30;99.90;;;;;;5001073;28;20031;-58
2023/07/19 06:42:00;;;;;;;3.60;2.58;;;19.30;99.90;;;;;;5000305;28;20034;-56
2023/07/19 06:44:26;;;;;;;6.25;2.72;;;19.40;99.90;;;;;;4997123;28;20030;-58
2023/07/19 06:46:52;;;;;;;3.78;2.97;;;19.50;99.90;;;;;;4996438;28;20076;-59
2023/07/19 06:49:18;;;;;;;5.07;2.70;;;19.60;99.90;;;;;;5000058;28;20034;-56
2023/07/19 06:51:44;;;;;;;5.38;2.45;;;19.60;99.90;;;;;;5003339;28;20038;-58
2023/07/19 06:54:10;;;;;;;3.63;2.50;;;19.80;99.90;;;;;;4998761;28;20568;-57
2023/07/19 06:56:35;;;;;;;2.80;2.53;;;19.90;99.90;;;;;;5001849;28;20026;-58
2023/07/19 06:59:01;;;;;;;5.70;2.38;;;20.00;99.90;;;;;;4998135;28;20682;-57
2023/07/19 07:01:26;;;;;;;5.85;2.35;;;20.10;99.90;;;;;;4998650;28;20039;-58
2023/07/19 07:03:52;;;;;;;2.90;2.35;;;20.20;99.90;;;;;;4999823;28;20030;-57
2023/07/19 07:06:18;;;;;;;8.75;2.35;;;20.40;99.90;;;;;;4997332;28;20038;-60
2023/07/19 07:08:44;;;;;;;5.75;3.15;;;20.50;99.90;;;;;;4999004;28;20029;-58
2023/07/19 07:11:10;;;;;;;3.08;2.42;;;20.60;99.90;;;;;;4999121;28;20479;-58
2023/07/19 07:13:35;;;;;;;2.60;2.20;;;20.70;99.90;;;;;;4997228;28;20057;-58
2023/07/19 07:16:02;;;;;;;5.13;1.85;;;20.80;99.90;;;;;;4997100;28;20041;-59
2023/07/19 07:18:28;;;;;;;7.55;2.47;;;21.00;99.90;;;;;;4999111;28;20046;-58
2023/07/19 07:20:54;;;;;;;5.95;2.40;;;21.10;99.90;;;;;;4999051;28;20030;-59
2023/07/19 07:23:19;;;;;;;2.38;1.95;;;21.30;99.90;;;;;;5003008;28;20057;-59
2023/07/19 07:25:45;;;;;;;3.35;2.20;;;21.60;99.90;;;;;;5001036;28;20883;-56
2023/07/19 07:28:11;;;;;;;6.60;2.58;;;21.90;99.90;;;;;;5000937;28;20030;-57
2023/07/19 07:30:37;;;;;;;7.25;2.58;;;22.10;97.60;;;;;;5000514;28;20449;-56
2023/07/19 07:33:03;;;;;;;4.53;1.83;;;22.20;96.70;;;;;;4996180;28;20045;-56
2023/07/19 07:35:29;;;;;;;2.72;2.03;;;22.20;96.30;;;;;;5003211;28;20034;-58
2023/07/19 07:37:55;;;;;;;2.85;1.92;;;22.30;96.40;;;;;;5002010;28;20050;-57
2023/07/19 07:40:21;;;;;;;2.67;2.00;;;22.40;96.20;;;;;;4996459;28;20039;-56
2023/07/19 07:42:46;;;;;;;3.08;2.13;;;22.50;96.00;;;;;;4999928;28;20030;-58
2023/07/19 07:45:13;;;;;;;3.20;1.90;;;22.60;94.90;;;;;;5002471;28;20026;-57
2023/07/19 07:47:38;;;;;;;9.90;2.58;;;22.80;94.60;;;;;;4998589;28;20034;-58
2023/07/19 07:50:08;;;;;;;4.30;1.90;;;23.00;93.30;;;;;;4997045;28;20072;-58
2023/07/19 07:52:34;;;;;;;4.35;2.20;;;23.10;92.00;;;;;;4997327;28;20045;-58
2023/07/19 07:55:00;;;;;;;6.30;2.45;;;23.40;91.10;;;;;;4996044;28;20023;-57
2023/07/19 07:57:26;;;;;;;4.18;2.00;;;23.60;90.70;;;;;;4995359;28;20034;-57
2023/07/19 07:59:51;;;;;;;5.18;2.20;;;23.70;89.10;;;;;;5005378;28;20211;-56
2023/07/19 08:02:17;;;;;;;4.00;2.08;;;23.70;88.50;;;;;;4995091;28;20033;-57
2023/07/19 08:04:43;;;;;;;4.07;2.30;;;23.50;88.00;;;;;;4997756;28;20081;-56
2023/07/19 08:07:08;;;;;;;3.78;2.03;;;23.50;87.70;;;;;;4998796;28;20545;-55
2023/07/19 08:09:34;;;;;;;4.88;2.45;;;23.50;88.30;;;;;;4999788;28;20037;-58
2023/07/19 08:11:59;;;;;;;6.15;2.40;;;23.50;87.10;;;;;;4997702;28;20512;-57
2023/07/19 08:14:25;;;;;;;4.82;2.30;;;23.50;85.90;;;;;;4998553;28;20243;-56
2023/07/19 08:16:53;;;;;;;3.80;2.53;;;23.50;86.40;;;;;;5003286;28;20494;-55
2023/07/19 08:19:19;;;;;;;4.68;2.15;;;23.60;84.10;;;;;;4997326;28;20052;-57
2023/07/19 08:21:44;;;;;;;3.78;2.17;;;23.70;82.30;;;;;;4997958;28;20031;-55
2023/07/19 08:24:11;;;;;;;6.45;2.30;;;23.70;81.40;;;;;;4996314;28;20026;-56
2023/07/19 08:26:37;;;;;;;4.05;2.08;;;23.90;81.10;;;;;;4996005;28;20029;-57
2023/07/19 08:29:03;;;;;;;9.52;2.40;;;23.90;81.50;;;;;;4997875;28;20022;-57
2023/07/19 08:31:28;;;;;;;3.55;2.40;;;24.00;81.80;;;;;;5001115;28;20033;-56
2023/07/19 08:33:54;;;;;;;4.40;2.28;;;24.10;80.40;;;;;;4995432;28;20121;-55
2023/07/19 08:36:20;;;;;;;3.05;1.92;;;24.20;78.00;;;;;;4994624;28;20030;-57
2023/07/19 08:38:46;;;;;;;2.70;1.98;;;24.20;78.70;;;;;;4997209;28;20030;-57
2023/07/19 08:41:12;;;;;;;4.13;2.08;;;24.10;78.50;;;;;;4995545;28;20037;-57
2023/07/19 08:43:38;;;;;;;3.47;2.17;;;24.10;77.30;;;;;;4996585;28;20031;-57
2023/07/19 08:46:04;;;;;;;5.15;1.98;;;24.10;77.40;;;;;;4999610;28;20037;-57
2023/07/19 08:48:32;;;;;;;4.00;2.35;;;24.20;77.70;;;;;;4996725;28;20022;-57
2023/07/19 08:51:01;;;;;;;3.85;2.20;;;24.40;78.90;;;;;;4997308;28;20027;-57
2023/07/19 08:53:27;;;;;;;5.63;1.90;;;24.60;77.50;;;;;;4993225;28;20026;-57
2023/07/19 08:55:54;;;;;;;4.55;1.88;;;24.90;76.70;;;;;;4993571;28;20501;-57
2023/07/19 08:58:19;;;;;;;3.15;1.80;;;25.20;73.70;;;;;;4998782;28;20056;-56
2023/07/19 09:00:49;;;;;;;4.82;2.10;;;25.60;71.20;;;;;;4993951;28;20473;-56
2023/07/19 09:03:16;;;;;;;4.63;2.40;;;25.80;71.30;;;;;;4996250;28;20042;-56
2023/07/19 09:05:44;;;;;;;3.05;1.67;;;26.10;70.00;;;;;;4994774;28;20105;-55
2023/07/19 09:08:10;;;;;;;7.63;2.00;;;26.40;69.30;;;;;;4995375;28;20022;-57
2023/07/19 09:10:36;;;;;;;6.18;1.92;;;26.80;67.00;;;;;;4995407;28;20034;-56
2023/07/19 09:13:05;;;;;;;3.83;1.92;;;26.90;64.20;;;;;;5000817;28;20494;-57
2023/07/19 09:15:36;;;;;;;5.05;2.00;;;27.00;63.20;;;;;;4997120;28;20398;-56
2023/07/19 09:18:04;;;;;;;;;;;27.00;64.40;;;;;;4996220;28;20037;-58
2023/07/19 09:20:30;;;;;;;3.35;1.80;;;27.10;64.00;;;;;;4995120;28;20581;-57
2023/07/19 09:22:57;;;;;;;5.95;1.90;;;27.20;64.70;;;;;;4998303;28;20026;-58
2023/07/19 09:25:23;;;;;;;4.93;1.73;;;27.30;63.60;;;;;;4999834;28;20587;-56
2023/07/19 09:27:51;;;;;;;2.95;1.70;;;27.40;62.90;;;;;;4995926;28;20062;-55
2023/07/19 09:30:16;;;;;;;3.08;1.60;;;27.40;61.70;;;;;;4996249;28;20057;-56
2023/07/19 09:32:42;;;;;;;7.38;2.13;;;27.40;63.50;;;;;;4995640;28;20038;-56
2023/07/19 09:35:09;;;;;;;2.25;1.80;;;27.60;63.20;;;;;;5000155;28;21374;-57
2023/07/19 09:37:34;;;;;;;5.18;2.00;;;27.70;62.20;;;;;;4996469;28;20220;-55
2023/07/19 09:40:03;;;;;;;5.15;2.00;;;27.90;61.00;;;;;;4993905;28;20772;-55
2023/07/19 09:42:32;;;;;;;3.22;2.10;;;28.00;60.70;;;;;;4999065;28;20095;-55
2023/07/19 09:45:00;;;;;;;3.08;1.90;;;28.10;60.40;;;;;;4997893;28;20046;-57
2023/07/19 09:47:26;;;;;;;4.78;2.00;;;28.30;60.20;;;;;;4999062;28;20030;-57
2023/07/19 09:49:53;;;;;;;4.30;1.77;;;28.40;58.20;;;;;;4999965;28;20022;-58
2023/07/19 09:52:19;;;;;;;3.30;1.83;;;28.50;58.10;;;;;;4997889;28;20096;-57
2023/07/19 09:54:45;;;;;;;3.28;1.92;;;28.40;58.50;;;;;;4997975;28;20487;-58
2023/07/19 09:57:11;;;;;;;4.10;1.90;;;28.10;57.20;;;;;;5000516;28;20033;-58
2023/07/19 09:59:44;;;;;;;4.47;1.80;;;27.80;57.70;;;;;;4997365;28;20053;-56
2023/07/19 10:02:11;;;;;;;5.53;1.83;;;27.60;59.10;;;;;;4994662;28;20030;-57
2023/07/19 10:04:38;;;;;;;4.68;2.35;;;27.50;59.30;;;;;;4995573;28;20125;-58
2023/07/19 10:07:07;;;;;;;4.15;2.10;;;27.60;59.20;;;;;;4991834;28;20030;-58
2023/07/19 10:09:37;;;;;;;4.35;1.60;;;27.50;58.70;;;;;;4996520;28;20026;-58
2023/07/19 10:12:26;;;;;;;3.58;2.20;;;27.30;58.10;;;;;;4997347;28;20046;-58
2023/07/19 10:15:04;;;;;;;2.67;2.05;;;27.40;59.30;;;;;;4996976;28;20018;-57
2023/07/19 10:17:41;;;;;;;4.03;2.10;;;27.50;58.90;;;;;;4994601;28;20026;-58
2023/07/19 10:20:12;;;;;;;2.58;1.98;;;27.60;58.80;;;;;;4995417;28;20029;-58
2023/07/19 10:22:58;;;;;;;3.80;1.98;;;27.70;57.80;;;;;;4996221;28;20018;-57
2023/07/19 10:25:32;;;;;;;3.55;2.00;;;27.40;57.80;;;;;;4994581;28;20037;-57
2023/07/19 10:28:09;;;;;;;3.55;1.75;;;27.20;58.70;;;;;;4997981;28;20078;-57
2023/07/19 10:30:46;;;;;;;3.90;1.98;;;27.00;58.80;;;;;;4995583;28;20437;-56
2023/07/19 10:33:13;;;;;;;5.72;2.15;;;26.90;60.30;;;;;;4997998;28;20038;-58
2023/07/19 10:35:40;;;;;;;6.05;2.47;;;27.10;58.80;;;;;;4996903;28;20029;-58
2023/07/19 10:38:12;;;;;;;5.20;2.17;;;27.10;58.70;;;;;;4996258;28;20391;-58
2023/07/19 10:40:37;;;;;;;4.10;2.28;;;27.00;59.70;;;;;;4994233;28;20161;-56
2023/07/19 10:43:03;;;;;;;4.35;2.13;;;26.90;60.60;;;;;;4999289;28;20125;-58
2023/07/19 10:45:29;;;;;;;7.45;2.92;;;27.00;59.40;;;;;;4995866;28;20794;-58
2023/07/19 10:47:59;;;;;;;5.30;1.80;;;27.30;60.10;;;;;;4994351;28;20124;-57
2023/07/19 10:50:25;;;;;;;3.15;1.98;;;27.50;59.70;;;;;;4991957;28;20537;-57
2023/07/19 10:52:51;;;;;;;3.85;2.00;;;27.80;57.80;;;;;;4996406;28;20226;-57
2023/07/19 10:55:16;;;;;;;7.47;1.95;;;27.80;58.20;;;;;;4999435;28;20778;-58
2023/07/19 10:57:42;;;;;;;2.78;1.80;;;27.80;57.80;;;;;;4998581;28;20058;-57
2023/07/19 11:00:14;;;;;;;2.78;1.70;;;27.70;57.90;;;;;;4995473;28;20019;-57
2023/07/19 11:02:40;;;;;;;9.32;2.40;;;27.80;57.30;;;;;;5000714;28;20037;-58
2023/07/19 11:05:07;;;;;;;2.58;1.67;;;27.80;59.00;;;;;;5000520;28;20022;-56
2023/07/19 11:07:34;;;;;;;3.75;1.83;;;27.80;58.60;;;;;;4997394;28;20038;-57
2023/07/19 11:10:03;;;;;;;6.05;2.00;;;27.60;58.40;;;;;;4999882;28;20057;-58
2023/07/19 11:12:30;;;;;;;3.28;2.10;;;27.70;58.90;;;;;;4999000;28;20076;-56
2023/07/19 11:14:58;;;;;;;10.90;1.90;;;27.70;58.40;;;;;;4999608;28;20026;-57
2023/07/19 11:17:28;;;;;;;2.70;1.90;;;27.60;57.00;;;;;;4999025;28;20056;-58
2023/07/19 11:19:55;;;;;;;4.97;1.67;;;27.70;56.20;;;;;;4997967;28;20478;-56
2023/07/19 11:22:25;;;;;;;3.40;1.80;;;27.90;55.20;;;;;;4998749;28;20076;-57
2023/07/19 11:24:53;;;;;;;6.57;2.27;;;28.00;56.30;;;;;;4993986;28;20033;-57
2023/07/19 11:27:40;;;;;;;4.88;1.98;;;28.10;55.40;;;;;;4999513;28;20158;-57
2023/07/19 11:30:07;;;;;;;7.22;2.03;;;28.40;54.40;;;;;;4997676;28;20479;-58
2023/07/19 11:32:33;;;;;;;4.43;1.42;;;28.70;53.00;;;;;;4995669;28;20164;-59
2023/07/19 11:35:00;;;;;;;3.38;1.83;;;28.90;52.90;;;;;;4998500;28;20402;-58
2023/07/19 11:37:38;;;;;;;3.80;1.88;;;29.10;52.60;;;;;;4996741;28;20026;-56
2023/07/19 11:40:05;;;;;;;3.78;1.80;;;29.30;51.70;;;;;;4998587;28;20054;-59
2023/07/19 11:42:46;;;;;;;3.75;1.80;;;29.30;51.00;;;;;;4997697;28;20034;-58
2023/07/19 11:45:25;;;;;;;2.28;1.58;;;29.50;50.50;;;;;;4996167;28;20096;-57
2023/07/19 11:47:57;;;;;;;2.35;1.48;;;29.80;49.80;;;;;;4997846;28;20038;-58
2023/07/19 11:50:23;;;;;;;1.95;1.75;;;30.00;49.80;;;;;;4995577;28;20053;-57
2023/07/19 11:53:01;;;;;;;5.35;1.75;;;30.10;50.10;;;;;;4996731;28;20144;-58
2023/07/19 11:55:29;;;;;;;2.55;1.55;;;30.20;50.80;;;;;;4995243;28;20026;-57
2023/07/19 11:57:55;;;;;;;2.40;1.70;;;29.90;49.90;;;;;;4997752;28;20054;-57
2023/07/19 12:00:23;;;;;;;4.30;1.63;;;29.70;50.00;;;;;;4998969;28;20038;-57
2023/07/19 12:02:51;;;;;;;3.63;1.80;;;29.60;49.90;;;;;;5000722;28;20037;-57
2023/07/19 12:05:23;;;;;;;4.47;1.90;;;29.40;48.80;;;;;;4998310;28;20026;-55
2023/07/19 12:07:50;;;;;;;2.55;2.15;;;29.20;51.30;;;;;;4997618;28;20165;-56
2023/07/19 12:10:17;;;;;;;3.03;1.45;;;29.00;50.80;;;;;;4997238;28;20406;-55
2023/07/19 12:12:48;;;;;;;1.92;1.70;;;28.90;51.60;;;;;;4996165;28;20406;-56
2023/07/19 12:15:14;;;;;;;2.05;1.45;;;28.80;52.10;;;;;;4996017;28;20069;-57
2023/07/19 12:17:40;;;;;;;4.25;2.00;;;28.70;52.00;;;;;;4999841;28;20021;-56
2023/07/19 12:20:08;;;;;;;4.43;1.80;;;28.60;52.80;;;;;;4997065;28;20406;-58
2023/07/19 12:22:35;;;;;;;2.78;1.52;;;28.50;52.30;;;;;;4999314;28;20050;-61
2023/07/19 12:25:01;;;;;;;5.25;1.98;;;28.40;52.40;;;;;;4998162;28;20065;-55
2023/07/19 12:27:26;;;;;;;4.82;2.10;;;28.30;52.80;;;;;;4999912;28;20042;-56
2023/07/19 12:29:52;;;;;;;5.50;2.03;;;28.10;53.40;;;;;;4999090;28;20038;-57
2023/07/19 12:32:18;;;;;;;5.30;1.70;;;28.10;54.50;;;;;;5000633;28;20531;-57
2023/07/19 12:34:45;;;;;;;5.25;1.88;;;28.10;54.40;;;;;;4997605;28;20041;-57
2023/07/19 12:37:12;;;;;;;2.53;1.60;;;28.20;54.70;;;;;;4998509;28;20069;-57
2023/07/19 12:39:38;;;;;;;2.42;1.48;;;28.30;53.50;;;;;;4996934;28;20046;-57
2023/07/19 12:42:04;;;;;;;2.45;1.73;;;28.40;53.20;;;;;;4997496;28;20038;-56
2023/07/19 12:44:30;;;;;;;8.02;1.80;;;28.60;52.30;;;;;;4996480;28;20034;-57